EZY16TP EGGW-LSZH
Flight info
| Callsign | EZY16TP |
|---|---|
| Flight time | 1h 15m |
| Altitude | 29000 |
| Route | MATCH Q295 BRAIN P44 DAGGA M85 ITVIP L10 DVR UL9 KONAN DCT KOK DCT CIV DCT SUTAL DCT GTQ DCT BAMEV DCT BLM |
| Aircraft | A319/M-SDE3FGHIRWY/LB1 |
Departure
| Time | 2026-05-07 17:15 |
|---|---|
| Airport | London Luton Airport (EGGW) |
Arrival
| Time | 2026-05-07 18:30 |
|---|---|
| Airport | Zürich Airport (LSZH) |
| Time | Latitude | Longitude | Altitude | Speed | Heading |
|---|---|---|---|---|---|
| 2026-05-07 16:22 | 51.87840 | -0.37843 | 524 ft | 0 kts | 28° |
| 2026-05-07 17:05 | 51.87837 | -0.37846 | 523 ft | 2 kts | 29° |
| 2026-05-07 17:05 | 51.87822 | -0.37859 | 523 ft | 2 kts | 32° |
| 2026-05-07 17:06 | 51.87809 | -0.37874 | 523 ft | 2 kts | 40° |
| 2026-05-07 17:06 | 51.87797 | -0.37894 | 523 ft | 2 kts | 89° |
| 2026-05-07 17:06 | 51.87800 | -0.37913 | 523 ft | 1 kts | 120° |
| 2026-05-07 17:06 | 51.87801 | -0.37914 | 523 ft | 0 kts | 120° |
| 2026-05-07 17:10 | 51.87791 | -0.37886 | 523 ft | 7 kts | 117° |
| 2026-05-07 17:10 | 51.87771 | -0.37817 | 523 ft | 8 kts | 115° |
| 2026-05-07 17:10 | 51.87745 | -0.37726 | 523 ft | 11 kts | 115° |
| 2026-05-07 17:11 | 51.87701 | -0.37574 | 520 ft | 16 kts | 116° |
| 2026-05-07 17:11 | 51.87657 | -0.37485 | 522 ft | 8 kts | 147° |
| 2026-05-07 17:11 | 51.87601 | -0.37458 | 523 ft | 9 kts | 174° |
| 2026-05-07 17:11 | 51.87530 | -0.37480 | 521 ft | 12 kts | 213° |
| 2026-05-07 17:12 | 51.87495 | -0.37585 | 523 ft | 10 kts | 255° |
| 2026-05-07 17:12 | 51.87477 | -0.37694 | 523 ft | 10 kts | 255° |
| 2026-05-07 17:12 | 51.87458 | -0.37807 | 522 ft | 11 kts | 255° |
| 2026-05-07 17:12 | 51.87436 | -0.37929 | 523 ft | 11 kts | 253° |
| 2026-05-07 17:13 | 51.87407 | -0.38028 | 524 ft | 10 kts | 228° |
| 2026-05-07 17:13 | 51.87355 | -0.38077 | 523 ft | 3 kts | 206° |
| 2026-05-07 17:13 | 51.87354 | -0.38077 | 523 ft | 0 kts | 206° |
| 2026-05-07 17:13 | 51.87353 | -0.38078 | 523 ft | 1 kts | 206° |
| 2026-05-07 17:14 | 51.87339 | -0.38089 | 522 ft | 5 kts | 206° |
| 2026-05-07 17:14 | 51.87289 | -0.38114 | 522 ft | 9 kts | 180° |
| 2026-05-07 17:14 | 51.87250 | -0.38075 | 524 ft | 6 kts | 90° |
| 2026-05-07 17:14 | 51.87263 | -0.38001 | 524 ft | 9 kts | 75° |
| 2026-05-07 17:15 | 51.87320 | -0.37673 | 521 ft | 65 kts | 74° |
| 2026-05-07 17:15 | 51.87504 | -0.36603 | 526 ft | 129 kts | 75° |
| 2026-05-07 17:15 | 51.87770 | -0.35002 | 826 ft | 151 kts | 76° |
| 2026-05-07 17:15 | 51.88041 | -0.33363 | 1494 ft | 152 kts | 76° |
| 2026-05-07 17:16 | 51.88331 | -0.31712 | 2046 ft | 159 kts | 75° |
| 2026-05-07 17:16 | 51.88651 | -0.29881 | 2416 ft | 179 kts | 76° |
| 2026-05-07 17:16 | 51.89003 | -0.27841 | 2846 ft | 198 kts | 75° |
| 2026-05-07 17:16 | 51.89408 | -0.25561 | 3149 ft | 225 kts | 75° |
| 2026-05-07 17:17 | 51.89525 | -0.22898 | 3461 ft | 254 kts | 105° |
| 2026-05-07 17:17 | 51.88579 | -0.20479 | 4204 ft | 262 kts | 142° |
| 2026-05-07 17:17 | 51.86989 | -0.19006 | 4925 ft | 266 kts | 155° |
| 2026-05-07 17:17 | 51.85296 | -0.17773 | 5024 ft | 267 kts | 158° |
| 2026-05-07 17:18 | 51.83571 | -0.16624 | 5928 ft | 268 kts | 159° |
| 2026-05-07 17:18 | 51.81844 | -0.15477 | 6944 ft | 270 kts | 159° |
| 2026-05-07 17:18 | 51.80100 | -0.14293 | 7881 ft | 273 kts | 158° |
| 2026-05-07 17:18 | 51.78341 | -0.13073 | 8813 ft | 277 kts | 158° |
| 2026-05-07 17:19 | 51.76649 | -0.11557 | 9720 ft | 283 kts | 140° |
| 2026-05-07 17:19 | 51.75532 | -0.08920 | 10514 ft | 292 kts | 110° |
| 2026-05-07 17:19 | 51.75339 | -0.05632 | 11164 ft | 307 kts | 86° |
| 2026-05-07 17:19 | 51.75581 | -0.02076 | 11438 ft | 330 kts | 84° |
| 2026-05-07 17:20 | 51.75900 | 0.01664 | 11786 ft | 349 kts | 83° |
| 2026-05-07 17:20 | 51.76258 | 0.05583 | 12469 ft | 356 kts | 83° |
| 2026-05-07 17:20 | 51.76630 | 0.09608 | 13252 ft | 360 kts | 83° |
| 2026-05-07 17:20 | 51.76988 | 0.13625 | 14000 ft | 363 kts | 84° |
| 2026-05-07 17:21 | 51.77332 | 0.17695 | 14656 ft | 368 kts | 84° |
| 2026-05-07 17:21 | 51.77669 | 0.21807 | 15313 ft | 372 kts | 84° |
| 2026-05-07 17:21 | 51.78005 | 0.25978 | 15939 ft | 377 kts | 84° |
| 2026-05-07 17:21 | 51.78242 | 0.30156 | 16566 ft | 380 kts | 93° |
| 2026-05-07 17:22 | 51.77790 | 0.34349 | 17176 ft | 381 kts | 111° |
| 2026-05-07 17:22 | 51.76544 | 0.38113 | 17777 ft | 382 kts | 130° |
| 2026-05-07 17:22 | 51.74663 | 0.41151 | 18395 ft | 384 kts | 140° |
| 2026-05-07 17:22 | 51.72648 | 0.44012 | 18955 ft | 388 kts | 141° |
| 2026-05-07 17:23 | 51.70604 | 0.46882 | 19520 ft | 391 kts | 141° |
| 2026-05-07 17:23 | 51.68542 | 0.49771 | 20096 ft | 395 kts | 141° |
| 2026-05-07 17:23 | 51.66462 | 0.52688 | 20667 ft | 399 kts | 141° |
| 2026-05-07 17:23 | 51.64362 | 0.55640 | 21234 ft | 402 kts | 141° |
| 2026-05-07 17:24 | 51.62251 | 0.58615 | 21785 ft | 405 kts | 141° |
| 2026-05-07 17:24 | 51.60116 | 0.61621 | 22324 ft | 409 kts | 141° |
| 2026-05-07 17:24 | 51.57968 | 0.64643 | 22849 ft | 412 kts | 141° |
| 2026-05-07 17:24 | 51.55798 | 0.67690 | 23346 ft | 416 kts | 141° |
| 2026-05-07 17:25 | 51.53609 | 0.70757 | 23808 ft | 419 kts | 141° |
| 2026-05-07 17:25 | 51.51406 | 0.73838 | 24230 ft | 422 kts | 141° |
| 2026-05-07 17:25 | 51.49218 | 0.76895 | 24643 ft | 424 kts | 141° |
| 2026-05-07 17:25 | 51.46982 | 0.80015 | 25055 ft | 427 kts | 141° |
| 2026-05-07 17:26 | 51.44733 | 0.83146 | 25461 ft | 430 kts | 141° |
| 2026-05-07 17:26 | 51.42466 | 0.86297 | 25868 ft | 432 kts | 141° |
| 2026-05-07 17:26 | 51.40184 | 0.89467 | 26270 ft | 435 kts | 141° |
| 2026-05-07 17:26 | 51.37893 | 0.92647 | 26674 ft | 438 kts | 141° |
| 2026-05-07 17:27 | 51.35584 | 0.95843 | 27068 ft | 440 kts | 141° |
| 2026-05-07 17:27 | 51.33260 | 0.99058 | 27455 ft | 443 kts | 141° |
| 2026-05-07 17:27 | 51.31090 | 1.02587 | 27808 ft | 449 kts | 132° |
| 2026-05-07 17:27 | 51.29279 | 1.06686 | 28176 ft | 455 kts | 122° |
| 2026-05-07 17:28 | 51.27898 | 1.11253 | 28543 ft | 460 kts | 112° |
| 2026-05-07 17:28 | 51.26976 | 1.16165 | 28892 ft | 464 kts | 105° |
| 2026-05-07 17:28 | 51.26179 | 1.21171 | 29058 ft | 463 kts | 105° |
| 2026-05-07 17:28 | 51.25379 | 1.26112 | 29075 ft | 458 kts | 106° |
| 2026-05-07 17:29 | 51.23765 | 1.35914 | 29071 ft | 456 kts | 106° |
| 2026-05-07 17:29 | 51.22150 | 1.45689 | 29069 ft | 456 kts | 106° |
| 2026-05-07 17:30 | 51.20547 | 1.55415 | 29070 ft | 456 kts | 106° |
| 2026-05-07 17:30 | 51.18933 | 1.65190 | 29069 ft | 456 kts | 106° |
| 2026-05-07 17:31 | 51.17581 | 1.73310 | 29063 ft | 455 kts | 106° |
| 2026-05-07 17:31 | 51.15941 | 1.83066 | 29061 ft | 455 kts | 107° |
| 2026-05-07 17:32 | 51.13569 | 1.92354 | 29069 ft | 453 kts | 116° |
| 2026-05-07 17:32 | 51.10992 | 2.01501 | 29073 ft | 453 kts | 116° |
| 2026-05-07 17:33 | 51.08405 | 2.10624 | 29073 ft | 452 kts | 116° |
| 2026-05-07 17:33 | 51.05801 | 2.19731 | 29071 ft | 452 kts | 116° |
| 2026-05-07 17:34 | 51.03189 | 2.28836 | 29067 ft | 452 kts | 116° |
| 2026-05-07 17:34 | 51.00578 | 2.37926 | 29053 ft | 452 kts | 116° |
| 2026-05-07 17:35 | 50.97959 | 2.47001 | 29059 ft | 452 kts | 116° |
| 2026-05-07 17:35 | 50.95330 | 2.56064 | 29061 ft | 452 kts | 116° |
| 2026-05-07 17:36 | 50.92459 | 2.64894 | 29056 ft | 450 kts | 121° |
| 2026-05-07 17:36 | 50.89336 | 2.73493 | 29055 ft | 450 kts | 122° |
| 2026-05-07 17:37 | 50.86164 | 2.82056 | 29053 ft | 450 kts | 122° |
| 2026-05-07 17:37 | 50.83018 | 2.90607 | 29042 ft | 450 kts | 122° |
| 2026-05-07 17:38 | 50.79911 | 2.99118 | 29042 ft | 450 kts | 122° |
| 2026-05-07 17:38 | 50.76784 | 3.07686 | 29046 ft | 450 kts | 122° |
| 2026-05-07 17:39 | 50.73637 | 3.16229 | 29045 ft | 450 kts | 122° |
| 2026-05-07 17:39 | 50.70477 | 3.24753 | 29046 ft | 450 kts | 122° |
| 2026-05-07 17:40 | 50.67316 | 3.33271 | 29046 ft | 450 kts | 122° |
| 2026-05-07 17:40 | 50.64140 | 3.41785 | 29049 ft | 450 kts | 122° |
| 2026-05-07 17:41 | 50.60963 | 3.50285 | 29058 ft | 450 kts | 122° |
| 2026-05-07 17:41 | 50.57789 | 3.58769 | 29045 ft | 449 kts | 122° |
| 2026-05-07 17:42 | 50.54606 | 3.67231 | 29044 ft | 449 kts | 122° |
| 2026-05-07 17:42 | 50.51417 | 3.75679 | 29046 ft | 449 kts | 122° |
| 2026-05-07 17:43 | 50.48225 | 3.84118 | 29052 ft | 449 kts | 122° |
| 2026-05-07 17:43 | 50.45030 | 3.92546 | 29061 ft | 449 kts | 122° |
| 2026-05-07 17:44 | 50.41828 | 4.00964 | 29060 ft | 449 kts | 123° |
| 2026-05-07 17:44 | 50.38622 | 4.09359 | 29066 ft | 449 kts | 123° |
| 2026-05-07 17:45 | 50.35422 | 4.17690 | 29067 ft | 449 kts | 123° |
| 2026-05-07 17:45 | 50.32202 | 4.26050 | 29062 ft | 449 kts | 123° |
| 2026-05-07 17:46 | 50.28977 | 4.34408 | 29062 ft | 449 kts | 123° |
| 2026-05-07 17:46 | 50.25746 | 4.42746 | 29055 ft | 449 kts | 123° |
| 2026-05-07 17:47 | 50.22515 | 4.51079 | 29051 ft | 448 kts | 123° |
| 2026-05-07 17:47 | 50.19271 | 4.59401 | 29046 ft | 448 kts | 123° |
| 2026-05-07 17:48 | 50.16017 | 4.67714 | 29054 ft | 448 kts | 123° |
| 2026-05-07 17:48 | 50.12768 | 4.76010 | 29057 ft | 448 kts | 123° |
| 2026-05-07 17:49 | 50.09510 | 4.84295 | 29052 ft | 448 kts | 123° |
| 2026-05-07 17:49 | 50.06270 | 4.92502 | 29044 ft | 448 kts | 123° |
| 2026-05-07 17:50 | 50.03003 | 5.00753 | 29046 ft | 448 kts | 123° |
| 2026-05-07 17:50 | 49.99733 | 5.08996 | 29047 ft | 448 kts | 123° |
| 2026-05-07 17:51 | 49.96438 | 5.17271 | 29051 ft | 448 kts | 123° |
| 2026-05-07 17:51 | 49.93170 | 5.25439 | 29048 ft | 448 kts | 123° |
| 2026-05-07 17:52 | 49.89879 | 5.33640 | 29046 ft | 448 kts | 123° |
| 2026-05-07 17:52 | 49.86587 | 5.41838 | 29049 ft | 448 kts | 123° |
| 2026-05-07 17:53 | 49.82746 | 5.49327 | 29032 ft | 444 kts | 138° |
| 2026-05-07 17:53 | 49.78287 | 5.55970 | 29038 ft | 444 kts | 138° |
| 2026-05-07 17:54 | 49.73821 | 5.62597 | 29041 ft | 445 kts | 138° |
| 2026-05-07 17:54 | 49.69353 | 5.69211 | 29046 ft | 445 kts | 138° |
| 2026-05-07 17:55 | 49.64879 | 5.75815 | 29048 ft | 445 kts | 138° |
| 2026-05-07 17:55 | 49.60436 | 5.82372 | 29049 ft | 445 kts | 138° |
| 2026-05-07 17:56 | 49.55954 | 5.88950 | 29042 ft | 445 kts | 138° |
| 2026-05-07 17:56 | 49.51466 | 5.95521 | 29042 ft | 445 kts | 138° |
| 2026-05-07 17:57 | 49.47734 | 6.00980 | 29042 ft | 444 kts | 138° |
| 2026-05-07 17:57 | 49.42490 | 6.08619 | 29039 ft | 444 kts | 138° |
| 2026-05-07 17:58 | 49.38031 | 6.15098 | 29038 ft | 444 kts | 138° |
| 2026-05-07 17:58 | 49.33535 | 6.21615 | 29026 ft | 444 kts | 138° |
| 2026-05-07 17:59 | 49.29035 | 6.28121 | 29032 ft | 445 kts | 138° |
| 2026-05-07 17:59 | 49.24523 | 6.34618 | 29036 ft | 445 kts | 138° |
| 2026-05-07 18:00 | 49.20014 | 6.41121 | 29039 ft | 445 kts | 138° |
| 2026-05-07 18:00 | 49.15489 | 6.47616 | 29039 ft | 445 kts | 138° |
| 2026-05-07 18:01 | 49.10965 | 6.54081 | 29032 ft | 446 kts | 139° |
| 2026-05-07 18:01 | 49.06427 | 6.60540 | 29040 ft | 446 kts | 139° |
| 2026-05-07 18:02 | 48.99556 | 6.69995 | 29035 ft | 444 kts | 146° |
| 2026-05-07 18:03 | 48.94116 | 6.74309 | 29041 ft | 440 kts | 161° |
| 2026-05-07 18:03 | 48.88399 | 6.77676 | 29037 ft | 441 kts | 161° |
| 2026-05-07 18:04 | 48.82689 | 6.81069 | 29040 ft | 440 kts | 161° |
| 2026-05-07 18:04 | 48.76978 | 6.84455 | 29047 ft | 440 kts | 161° |
| 2026-05-07 18:05 | 48.71263 | 6.87823 | 29049 ft | 440 kts | 161° |
| 2026-05-07 18:05 | 48.65559 | 6.91183 | 29052 ft | 440 kts | 161° |
| 2026-05-07 18:06 | 48.59842 | 6.94531 | 29023 ft | 440 kts | 161° |
| 2026-05-07 18:06 | 48.57013 | 6.96181 | 28752 ft | 442 kts | 161° |
| 2026-05-07 18:06 | 48.54141 | 6.97856 | 28483 ft | 442 kts | 161° |
| 2026-05-07 18:06 | 48.51271 | 6.99530 | 28200 ft | 443 kts | 161° |
| 2026-05-07 18:07 | 48.48394 | 7.01212 | 27929 ft | 443 kts | 161° |
| 2026-05-07 18:07 | 48.45517 | 7.02892 | 27662 ft | 444 kts | 161° |
| 2026-05-07 18:07 | 48.42644 | 7.04568 | 27384 ft | 442 kts | 161° |
| 2026-05-07 18:07 | 48.39778 | 7.06234 | 27116 ft | 440 kts | 161° |
| 2026-05-07 18:08 | 48.36927 | 7.07887 | 26778 ft | 439 kts | 161° |
| 2026-05-07 18:08 | 48.34088 | 7.09531 | 26260 ft | 435 kts | 161° |
| 2026-05-07 18:08 | 48.31279 | 7.11155 | 25749 ft | 431 kts | 161° |
| 2026-05-07 18:08 | 48.28492 | 7.12763 | 25253 ft | 427 kts | 161° |
| 2026-05-07 18:09 | 48.25729 | 7.14358 | 24766 ft | 424 kts | 161° |
| 2026-05-07 18:09 | 48.22984 | 7.15944 | 24286 ft | 421 kts | 161° |
| 2026-05-07 18:09 | 48.20264 | 7.17514 | 23805 ft | 417 kts | 161° |
| 2026-05-07 18:09 | 48.17561 | 7.19069 | 23279 ft | 414 kts | 161° |
| 2026-05-07 18:10 | 48.14884 | 7.20605 | 22730 ft | 411 kts | 161° |
| 2026-05-07 18:10 | 48.12221 | 7.22134 | 22238 ft | 407 kts | 161° |
| 2026-05-07 18:10 | 48.09582 | 7.23649 | 21969 ft | 406 kts | 161° |
| 2026-05-07 18:10 | 48.06956 | 7.25156 | 21706 ft | 404 kts | 161° |
| 2026-05-07 18:11 | 48.04331 | 7.26663 | 21439 ft | 402 kts | 161° |
| 2026-05-07 18:11 | 48.02603 | 7.27653 | 21269 ft | 401 kts | 161° |
| 2026-05-07 18:11 | 47.99126 | 7.29641 | 20918 ft | 399 kts | 161° |
| 2026-05-07 18:11 | 47.96540 | 7.31115 | 20663 ft | 397 kts | 161° |
| 2026-05-07 18:12 | 47.93961 | 7.32583 | 20395 ft | 396 kts | 161° |
| 2026-05-07 18:12 | 47.91429 | 7.34023 | 20166 ft | 394 kts | 161° |
| 2026-05-07 18:12 | 47.88876 | 7.35472 | 19905 ft | 392 kts | 161° |
| 2026-05-07 18:12 | 47.86328 | 7.36915 | 19656 ft | 391 kts | 161° |
| 2026-05-07 18:13 | 47.83791 | 7.38350 | 19410 ft | 389 kts | 161° |
| 2026-05-07 18:13 | 47.81266 | 7.39779 | 19166 ft | 387 kts | 161° |
| 2026-05-07 18:13 | 47.78752 | 7.41203 | 18921 ft | 386 kts | 161° |
| 2026-05-07 18:13 | 47.76252 | 7.42620 | 18677 ft | 385 kts | 161° |
| 2026-05-07 18:14 | 47.73750 | 7.44032 | 18439 ft | 383 kts | 161° |
| 2026-05-07 18:14 | 47.71263 | 7.45438 | 18185 ft | 382 kts | 161° |
| 2026-05-07 18:14 | 47.68785 | 7.46845 | 17913 ft | 381 kts | 160° |
| 2026-05-07 18:14 | 47.66438 | 7.48663 | 17642 ft | 382 kts | 148° |
| 2026-05-07 18:15 | 47.64374 | 7.51163 | 17362 ft | 384 kts | 137° |
| 2026-05-07 18:15 | 47.63211 | 7.53148 | 17186 ft | 385 kts | 129° |
| 2026-05-07 18:15 | 47.61826 | 7.56534 | 16916 ft | 386 kts | 117° |
| 2026-05-07 18:15 | 47.60914 | 7.60260 | 17169 ft | 388 kts | 109° |
| 2026-05-07 18:16 | 47.60045 | 7.64099 | 16306 ft | 397 kts | 110° |
| 2026-05-07 18:16 | 47.59125 | 7.67982 | 15517 ft | 401 kts | 111° |
| 2026-05-07 18:16 | 47.58183 | 7.71885 | 14775 ft | 404 kts | 111° |
| 2026-05-07 18:16 | 47.57236 | 7.75800 | 14037 ft | 405 kts | 111° |
| 2026-05-07 18:17 | 47.56289 | 7.79740 | 13272 ft | 406 kts | 111° |
| 2026-05-07 18:17 | 47.55347 | 7.83691 | 12482 ft | 406 kts | 111° |
| 2026-05-07 18:17 | 47.54414 | 7.87635 | 11712 ft | 405 kts | 111° |
| 2026-05-07 18:17 | 47.53491 | 7.91562 | 10957 ft | 403 kts | 111° |
| 2026-05-07 18:18 | 47.52577 | 7.95448 | 10375 ft | 392 kts | 111° |
| 2026-05-07 18:18 | 47.51704 | 7.99153 | 9906 ft | 370 kts | 111° |
| 2026-05-07 18:18 | 47.50883 | 8.02622 | 9625 ft | 345 kts | 111° |
| 2026-05-07 18:18 | 47.49935 | 8.05733 | 9359 ft | 321 kts | 121° |
| 2026-05-07 18:19 | 47.48889 | 8.08535 | 9099 ft | 302 kts | 121° |
| 2026-05-07 18:19 | 47.47893 | 8.11204 | 8836 ft | 292 kts | 121° |
| 2026-05-07 18:19 | 47.46915 | 8.13823 | 8573 ft | 289 kts | 121° |
| 2026-05-07 18:19 | 47.45947 | 8.16415 | 8326 ft | 287 kts | 121° |
| 2026-05-07 18:20 | 47.44986 | 8.18985 | 8073 ft | 285 kts | 121° |
| 2026-05-07 18:20 | 47.44031 | 8.21541 | 7818 ft | 283 kts | 120° |
| 2026-05-07 18:20 | 47.43080 | 8.24087 | 7565 ft | 282 kts | 121° |
| 2026-05-07 18:20 | 47.42146 | 8.26585 | 7320 ft | 281 kts | 120° |
| 2026-05-07 18:21 | 47.41210 | 8.29092 | 7068 ft | 280 kts | 121° |
| 2026-05-07 18:21 | 47.40274 | 8.31598 | 6820 ft | 277 kts | 120° |
| 2026-05-07 18:21 | 47.39345 | 8.34081 | 6571 ft | 276 kts | 119° |
| 2026-05-07 18:21 | 47.38418 | 8.36557 | 6326 ft | 274 kts | 119° |
| 2026-05-07 18:22 | 47.37495 | 8.39014 | 6061 ft | 273 kts | 119° |
| 2026-05-07 18:22 | 47.36872 | 8.40667 | 5896 ft | 272 kts | 119° |
| 2026-05-07 18:22 | 47.35654 | 8.43899 | 5542 ft | 271 kts | 119° |
| 2026-05-07 18:22 | 47.34726 | 8.46300 | 5284 ft | 270 kts | 123° |
| 2026-05-07 18:23 | 47.33369 | 8.48144 | 5070 ft | 263 kts | 153° |
| 2026-05-07 18:23 | 47.31698 | 8.49062 | 5003 ft | 250 kts | 163° |
| 2026-05-07 18:23 | 47.30044 | 8.49792 | 5008 ft | 248 kts | 163° |
| 2026-05-07 18:23 | 47.28384 | 8.50504 | 5012 ft | 248 kts | 163° |
| 2026-05-07 18:24 | 47.26721 | 8.51206 | 5013 ft | 248 kts | 163° |
| 2026-05-07 18:24 | 47.25066 | 8.51884 | 5011 ft | 247 kts | 164° |
| 2026-05-07 18:24 | 47.23434 | 8.52677 | 5010 ft | 247 kts | 152° |
| 2026-05-07 18:24 | 47.22123 | 8.54261 | 5012 ft | 245 kts | 126° |
| 2026-05-07 18:25 | 47.21429 | 8.56524 | 5010 ft | 245 kts | 99° |
| 2026-05-07 18:25 | 47.21496 | 8.59005 | 5011 ft | 244 kts | 73° |
| 2026-05-07 18:25 | 47.22300 | 8.61182 | 5012 ft | 244 kts | 49° |
| 2026-05-07 18:25 | 47.23458 | 8.63010 | 5013 ft | 245 kts | 46° |
| 2026-05-07 18:26 | 47.24649 | 8.64791 | 5007 ft | 241 kts | 39° |
| 2026-05-07 18:26 | 47.26072 | 8.65998 | 5011 ft | 236 kts | 20° |
| 2026-05-07 18:26 | 47.27654 | 8.66444 | 5010 ft | 236 kts | 0° |
| 2026-05-07 18:26 | 47.29268 | 8.66097 | 5003 ft | 236 kts | 341° |
| 2026-05-07 18:27 | 47.30778 | 8.65133 | 4761 ft | 236 kts | 335° |
| 2026-05-07 18:27 | 47.32279 | 8.64093 | 4401 ft | 233 kts | 334° |
| 2026-05-07 18:27 | 47.33707 | 8.63112 | 4088 ft | 226 kts | 335° |
| 2026-05-07 18:27 | 47.35108 | 8.62152 | 3759 ft | 218 kts | 335° |
| 2026-05-07 18:28 | 47.36464 | 8.61224 | 3446 ft | 211 kts | 335° |
| 2026-05-07 18:28 | 47.37777 | 8.60324 | 3140 ft | 205 kts | 334° |
| 2026-05-07 18:28 | 47.39044 | 8.59455 | 2863 ft | 196 kts | 335° |
| 2026-05-07 18:28 | 47.40241 | 8.58634 | 2554 ft | 183 kts | 334° |
| 2026-05-07 18:29 | 47.41345 | 8.57877 | 2307 ft | 166 kts | 334° |
| 2026-05-07 18:29 | 47.42333 | 8.57199 | 2046 ft | 147 kts | 335° |
| 2026-05-07 18:29 | 47.43225 | 8.56586 | 1837 ft | 137 kts | 335° |
| 2026-05-07 18:29 | 47.44065 | 8.56009 | 1621 ft | 132 kts | 334° |
| 2026-05-07 18:30 | 47.44889 | 8.55439 | 1448 ft | 129 kts | 334° |
| 2026-05-07 18:30 | 47.45658 | 8.54910 | 1394 ft | 106 kts | 335° |
| 2026-05-07 18:30 | 47.46170 | 8.54559 | 1386 ft | 56 kts | 335° |
| 2026-05-07 18:30 | 47.46367 | 8.54424 | 1385 ft | 13 kts | 338° |
| 2026-05-07 18:31 | 47.46448 | 8.54470 | 1382 ft | 15 kts | 66° |
| 2026-05-07 18:31 | 47.46472 | 8.54549 | 1384 ft | 6 kts | 64° |
| 2026-05-07 18:31 | 47.46478 | 8.54591 | 1387 ft | 3 kts | 84° |
| 2026-05-07 18:31 | 47.46472 | 8.54621 | 1387 ft | 4 kts | 116° |
| 2026-05-07 18:32 | 47.46440 | 8.54652 | 1385 ft | 8 kts | 155° |
| 2026-05-07 18:32 | 47.46370 | 8.54700 | 1383 ft | 14 kts | 155° |
| 2026-05-07 18:32 | 47.46270 | 8.54768 | 1386 ft | 17 kts | 155° |
| 2026-05-07 18:32 | 47.46156 | 8.54848 | 1386 ft | 19 kts | 154° |
| 2026-05-07 18:33 | 47.46083 | 8.54899 | 1387 ft | 0 kts | 155° |
| 2026-05-07 18:33 | 47.46080 | 8.54900 | 1387 ft | 1 kts | 155° |
| 2026-05-07 18:33 | 47.46056 | 8.54917 | 1388 ft | 8 kts | 155° |
| 2026-05-07 18:33 | 47.46009 | 8.54969 | 1395 ft | 7 kts | 101° |
| 2026-05-07 18:34 | 47.46019 | 8.55037 | 1392 ft | 6 kts | 71° |
| 2026-05-07 18:34 | 47.46056 | 8.55073 | 1399 ft | 6 kts | 31° |
| 2026-05-07 18:34 | 47.46056 | 8.55114 | 1396 ft | 3 kts | 99° |
| 2026-05-07 18:34 | 47.46059 | 8.55140 | 1394 ft | 2 kts | 69° |
| 2026-05-07 18:35 | 47.46063 | 8.55153 | 1394 ft | 1 kts | 64° |
| 2026-05-07 18:35 | 47.46068 | 8.55168 | 1401 ft | 2 kts | 64° |
| 2026-05-07 18:35 | 47.46071 | 8.55176 | 1401 ft | 0 kts | 64° |
| 2026-05-07 18:35 | 47.46073 | 8.55182 | 1400 ft | 1 kts | 64° |
| 2026-05-07 18:36 | 47.46073 | 8.55183 | 1400 ft | 0 kts | 64° |